createdAt,value
2019-02-22T00:01:16.566Z,9.22
2019-02-22T00:03:44.845Z,9.36
2019-02-22T00:06:13.102Z,9.33
2019-02-22T00:08:41.407Z,9.08
2019-02-22T00:11:09.673Z,9.23
2019-02-22T00:13:37.945Z,9.34
2019-02-22T00:16:06.213Z,9.38
2019-02-22T00:18:34.483Z,9.20
2019-02-22T00:21:02.759Z,9.33
2019-02-22T00:23:31.028Z,9.12
2019-02-22T00:25:59.311Z,9.20
2019-02-22T00:28:27.576Z,9.11
2019-02-22T00:30:55.854Z,9.08
2019-02-22T00:33:24.195Z,9.14
2019-02-22T00:35:52.479Z,9.19
2019-02-22T00:38:20.779Z,9.34
2019-02-22T00:40:49.210Z,9.52
2019-02-22T00:43:17.507Z,9.63
2019-02-22T00:45:45.757Z,9.78
2019-02-22T00:48:14.024Z,9.83
2019-02-22T00:50:42.290Z,9.83
2019-02-22T00:53:10.566Z,9.68
2019-02-22T00:55:38.906Z,9.68
2019-02-22T00:58:07.175Z,9.71
2019-02-22T01:00:35.470Z,9.92
2019-02-22T01:03:03.732Z,9.93
2019-02-22T01:05:32.021Z,9.86
2019-02-22T01:08:00.308Z,9.81
2019-02-22T01:10:31.457Z,9.85
2019-02-22T01:12:58.602Z,9.93
2019-02-22T01:15:26.867Z,10.01
2019-02-22T01:17:55.146Z,9.92
2019-02-22T01:20:23.438Z,9.78
2019-02-22T01:22:51.736Z,9.99
2019-02-22T01:25:20.002Z,10.06
2019-02-22T01:27:48.306Z,10.04
2019-02-22T01:30:16.563Z,9.92
2019-02-22T01:32:44.824Z,9.91
2019-02-22T01:35:13.115Z,9.96
2019-02-22T01:37:41.408Z,9.87
2019-02-22T01:40:10.516Z,9.89
2019-02-22T01:42:38.805Z,9.83
2019-02-22T01:45:07.537Z,9.96
2019-02-22T01:47:35.831Z,10.01
2019-02-22T01:50:05.334Z,9.94
2019-02-22T01:52:33.619Z,9.96
2019-02-22T01:55:01.909Z,10.02
2019-02-22T01:57:30.209Z,10.01
2019-02-22T01:59:58.463Z,10.04
2019-02-22T02:02:26.792Z,9.94
2019-02-22T02:04:55.055Z,10.02
2019-02-22T02:07:23.313Z,9.98
2019-02-22T02:09:51.593Z,10.11
2019-02-22T02:12:19.866Z,10.18
2019-02-22T02:14:48.141Z,10.11
2019-02-22T02:17:17.782Z,10.16
2019-02-22T02:19:46.335Z,10.12
2019-02-22T02:22:14.639Z,10.10
2019-02-22T02:24:42.996Z,10.17
2019-02-22T02:27:11.296Z,10.23
2019-02-22T02:29:39.558Z,10.03
2019-02-22T02:32:07.850Z,9.99
2019-02-22T02:34:36.249Z,10.14
2019-02-22T02:37:04.541Z,10.06
2019-02-22T02:39:32.809Z,10.13
2019-02-22T02:42:01.081Z,9.99
2019-02-22T02:44:29.352Z,10.08
2019-02-22T02:46:57.641Z,9.97
2019-02-22T02:49:25.901Z,9.92
2019-02-22T02:51:54.202Z,10.04
2019-02-22T02:54:22.485Z,9.93
2019-02-22T02:56:50.756Z,10.01
2019-02-22T02:59:19.026Z,9.85
2019-02-22T03:01:47.284Z,9.92
2019-02-22T03:04:15.577Z,10.03
2019-02-22T03:06:48.330Z,10.12
2019-02-22T03:09:16.666Z,10.08
2019-02-22T03:11:44.891Z,9.93
2019-02-22T03:14:13.155Z,9.94
2019-02-22T03:16:41.443Z,10.05
2019-02-22T03:19:09.706Z,10.10
2019-02-22T03:21:37.978Z,10.23
2019-02-22T03:24:06.242Z,9.97
2019-02-22T03:26:34.534Z,10.14
2019-02-22T03:29:02.804Z,10.13
2019-02-22T03:31:31.122Z,10.07
2019-02-22T03:33:59.384Z,10.05
2019-02-22T03:36:27.658Z,10.13
2019-02-22T03:38:55.923Z,10.18
2019-02-22T03:41:32.211Z,10.29
2019-02-22T03:43:54.207Z,10.27
2019-02-22T03:46:22.513Z,10.23
2019-02-22T03:48:50.876Z,10.28
2019-02-22T03:51:19.140Z,10.21
2019-02-22T03:53:48.614Z,10.23
2019-02-22T03:56:16.908Z,10.23
2019-02-22T03:58:45.182Z,10.06
2019-02-22T04:01:13.475Z,10.16
2019-02-22T04:03:41.772Z,10.19
2019-02-22T04:06:10.050Z,10.33
2019-02-22T04:08:38.341Z,10.40
2019-02-22T04:11:06.609Z,10.41
2019-02-22T04:13:34.882Z,10.52
2019-02-22T04:16:03.150Z,10.47
2019-02-22T04:18:31.429Z,10.38
2019-02-22T04:20:59.727Z,10.39
2019-02-22T04:23:27.996Z,10.39
2019-02-22T04:25:56.294Z,10.38
2019-02-22T04:28:24.570Z,10.42
2019-02-22T04:30:52.844Z,10.44
2019-02-22T04:33:21.135Z,10.35
2019-02-22T04:35:49.394Z,10.46
2019-02-22T04:38:17.694Z,10.36
2019-02-22T04:40:45.996Z,10.28
2019-02-22T04:43:14.251Z,10.23
2019-02-22T04:45:42.554Z,10.21
2019-02-22T04:48:10.861Z,9.77
2019-02-22T04:50:39.099Z,9.41
2019-02-22T04:53:07.389Z,9.20
2019-02-22T04:55:35.682Z,9.20
2019-02-22T04:58:03.931Z,9.10
2019-02-22T05:00:32.202Z,8.99
2019-02-22T05:03:00.467Z,8.86
2019-02-22T05:05:28.767Z,8.86
2019-02-22T05:07:57.024Z,8.80
2019-02-22T05:10:25.324Z,8.78
2019-02-22T05:12:53.566Z,8.64
2019-02-22T05:15:21.859Z,8.36
2019-02-22T05:17:50.113Z,8.29
2019-02-22T05:20:18.563Z,8.33
2019-02-22T05:22:46.823Z,8.33
2019-02-22T05:25:15.074Z,8.28
2019-02-22T05:27:43.384Z,8.24
2019-02-22T05:30:11.633Z,8.38
2019-02-22T05:32:39.887Z,8.19
2019-02-22T05:35:08.144Z,8.01
2019-02-22T05:37:36.402Z,7.73
2019-02-22T05:40:05.423Z,7.55
2019-02-22T05:42:33.676Z,7.31
2019-02-22T05:45:12.539Z,7.15
2019-02-22T05:47:41.224Z,7.26
2019-02-22T05:50:09.420Z,7.38
2019-02-22T05:52:37.739Z,7.09
2019-02-22T05:55:06.354Z,7.01
2019-02-22T05:57:34.607Z,7.14
2019-02-22T06:00:02.869Z,7.14
2019-02-22T06:02:33.733Z,6.95
2019-02-22T06:05:01.146Z,6.78
2019-02-22T06:07:29.421Z,6.86
2019-02-22T06:09:57.698Z,6.99
2019-02-22T06:12:34.258Z,6.92
2019-02-22T06:14:55.946Z,6.66
2019-02-22T06:17:24.210Z,6.51
2019-02-22T06:19:52.478Z,6.05
2019-02-22T06:22:29.071Z,5.82
2019-02-22T06:24:50.743Z,5.69
2019-02-22T06:27:19.029Z,5.57
2019-02-22T06:29:49.295Z,5.50
2019-02-22T06:32:17.306Z,5.17
2019-02-22T06:34:45.573Z,5.04
2019-02-22T06:37:13.826Z,4.99
2019-02-22T06:39:42.137Z,4.86
2019-02-22T06:42:10.446Z,4.69
2019-02-22T06:44:38.711Z,4.68
2019-02-22T06:47:06.974Z,4.32
2019-02-22T06:49:35.261Z,4.08
2019-02-22T06:52:03.523Z,3.97
2019-02-22T06:54:31.823Z,3.98
2019-02-22T06:57:00.079Z,4.12
2019-02-22T06:59:28.361Z,4.08
2019-02-22T07:01:56.617Z,4.09
2019-02-22T07:04:24.958Z,4.20
2019-02-22T07:06:53.231Z,4.15
2019-02-22T07:09:21.485Z,3.82
2019-02-22T07:11:51.413Z,3.58
2019-02-22T07:14:19.684Z,3.84
2019-02-22T07:16:48.171Z,3.79
2019-02-22T07:19:16.563Z,3.75
2019-02-22T07:21:52.427Z,3.73
2019-02-22T07:24:14.825Z,3.79
2019-02-22T07:26:43.113Z,3.60
2019-02-22T07:29:11.372Z,3.72
2019-02-22T07:31:39.666Z,3.80
2019-02-22T07:34:07.948Z,3.58
2019-02-22T07:36:36.250Z,3.77
2019-02-22T07:39:05.510Z,3.72
2019-02-22T07:41:33.792Z,4.05
2019-02-22T07:44:02.062Z,4.15
2019-02-22T07:46:30.351Z,4.13
2019-02-22T07:48:58.611Z,4.05
2019-02-22T07:51:26.935Z,3.76
2019-02-22T07:53:55.187Z,3.68
2019-02-22T07:56:23.509Z,3.44
2019-02-22T07:58:51.774Z,3.53
2019-02-22T08:01:20.027Z,3.41
2019-02-22T08:03:48.295Z,3.38
2019-02-22T08:06:16.560Z,3.80
2019-02-22T08:08:44.842Z,3.60
2019-02-22T08:11:13.102Z,3.48
2019-02-22T08:13:41.383Z,3.60
2019-02-22T08:16:09.651Z,3.50
2019-02-22T08:18:37.924Z,3.31
2019-02-22T08:21:06.199Z,3.59
2019-02-22T08:23:34.485Z,3.30
2019-02-22T08:26:02.743Z,3.40
2019-02-22T08:28:31.007Z,3.26
2019-02-22T08:30:59.292Z,3.13
2019-02-22T08:33:27.548Z,3.22
2019-02-22T08:35:55.839Z,2.95
2019-02-22T08:38:24.091Z,3.35
2019-02-22T08:40:52.383Z,3.58
2019-02-22T08:43:30.790Z,3.83
2019-02-22T08:45:50.665Z,3.93
2019-02-22T08:48:18.918Z,3.72
2019-02-22T08:50:47.175Z,2.90
2019-02-22T08:53:15.434Z,2.80
2019-02-22T08:55:43.694Z,2.67
2019-02-22T08:58:11.983Z,2.79
2019-02-22T09:00:40.250Z,2.96
2019-02-22T09:03:08.521Z,3.02
2019-02-22T09:05:36.845Z,2.99
2019-02-22T09:08:05.127Z,2.82
2019-02-22T09:10:33.385Z,2.82
2019-02-22T09:13:01.671Z,3.02
2019-02-22T09:15:29.932Z,3.11
2019-02-22T09:17:58.237Z,2.83
2019-02-22T09:20:26.505Z,2.60
2019-02-22T09:22:54.778Z,2.73
2019-02-22T09:25:23.144Z,2.69
2019-02-22T09:27:51.417Z,2.67
2019-02-22T09:30:19.665Z,2.64
2019-02-22T09:32:47.948Z,2.34
2019-02-22T09:35:16.209Z,2.27
2019-02-22T09:37:44.504Z,2.48
2019-02-22T09:40:14.829Z,2.40
2019-02-22T09:42:42.907Z,2.55
2019-02-22T09:45:12.457Z,2.36
2019-02-22T09:47:43.490Z,2.73
2019-02-22T09:50:14.934Z,2.60
2019-02-22T09:52:43.258Z,2.56
2019-02-22T09:55:12.786Z,2.61
2019-02-22T09:57:41.049Z,2.86
2019-02-22T10:00:11.839Z,3.43
2019-02-22T10:02:40.123Z,3.64
2019-02-22T10:05:10.014Z,3.64
2019-02-22T10:07:38.282Z,3.87
2019-02-22T10:10:10.541Z,3.43
2019-02-22T10:12:38.796Z,3.55
2019-02-22T10:15:10.670Z,3.75
2019-02-22T10:17:38.928Z,3.21
2019-02-22T10:20:11.590Z,3.18
2019-02-22T10:22:39.843Z,3.14
2019-02-22T10:25:10.028Z,3.15
2019-02-22T10:27:38.278Z,3.41
2019-02-22T10:30:09.897Z,3.01
2019-02-22T10:32:38.182Z,2.77
2019-02-22T10:35:07.493Z,3.04
2019-02-22T10:37:35.762Z,4.17
2019-02-22T10:40:05.755Z,4.48
2019-02-22T10:42:34.023Z,5.13
2019-02-22T10:45:02.283Z,5.22
2019-02-22T10:47:30.552Z,4.52
2019-02-22T10:49:58.810Z,4.87
2019-02-22T10:52:27.090Z,5.43
2019-02-22T10:54:55.342Z,4.53
2019-02-22T10:57:23.642Z,4.80
2019-02-22T10:59:51.898Z,5.11
2019-02-22T11:02:20.181Z,5.45
2019-02-22T11:04:48.455Z,5.81
2019-02-22T11:07:16.761Z,6.05
2019-02-22T11:09:45.009Z,6.17
2019-02-22T11:12:13.260Z,6.46
2019-02-22T11:14:41.522Z,6.64
2019-02-22T11:17:09.813Z,6.51
2019-02-22T11:19:38.077Z,6.28
2019-02-22T11:22:06.357Z,6.28
2019-02-22T11:24:34.610Z,6.24
2019-02-22T11:27:02.898Z,6.36
2019-02-22T11:29:31.152Z,6.72
2019-02-22T11:31:59.414Z,7.23
2019-02-22T11:34:27.703Z,7.31
2019-02-22T11:36:55.956Z,7.16
2019-02-22T11:39:24.333Z,6.33
2019-02-22T11:41:52.608Z,5.91
2019-02-22T11:44:20.895Z,6.00
2019-02-22T11:46:49.169Z,6.14
2019-02-22T11:49:17.453Z,6.05
2019-02-22T11:51:45.710Z,5.61
2019-02-22T11:54:13.983Z,5.28
2019-02-22T11:56:42.252Z,5.59
2019-02-22T11:59:10.542Z,5.42
2019-02-22T12:01:38.801Z,5.17
2019-02-22T12:04:08.114Z,4.79
2019-02-22T12:06:36.360Z,4.49
2019-02-22T12:09:04.895Z,4.34
2019-02-22T12:11:33.148Z,4.34
2019-02-22T12:14:01.432Z,4.68
2019-02-22T12:16:29.689Z,4.56
2019-02-22T12:18:57.950Z,4.88
2019-02-22T12:21:26.219Z,5.04
2019-02-22T12:23:54.490Z,4.56
2019-02-22T12:26:22.786Z,4.86
2019-02-22T12:28:51.040Z,4.90
2019-02-22T12:31:19.328Z,5.02
2019-02-22T12:33:47.649Z,4.59
2019-02-22T12:36:15.959Z,4.39
2019-02-22T12:38:44.209Z,4.09
2019-02-22T12:41:12.496Z,4.11
2019-02-22T12:43:40.779Z,4.03
2019-02-22T12:46:10.449Z,4.27
2019-02-22T12:48:38.738Z,4.49
2019-02-22T12:51:07.400Z,4.32
2019-02-22T12:53:35.681Z,4.56
2019-02-22T12:56:03.935Z,4.71
2019-02-22T12:58:32.202Z,4.69
2019-02-22T13:01:00.457Z,4.55
2019-02-22T13:03:28.913Z,4.49
2019-02-22T13:05:57.170Z,4.43
2019-02-22T13:08:25.463Z,4.67
2019-02-22T13:10:53.745Z,4.63
2019-02-22T13:13:22.006Z,4.78
2019-02-22T13:15:50.295Z,4.35
2019-02-22T13:18:18.549Z,4.18
2019-02-22T13:20:48.989Z,4.13
2019-02-22T13:23:17.256Z,3.97
2019-02-22T13:25:45.515Z,4.04
2019-02-22T13:28:13.775Z,3.93
2019-02-22T13:30:42.060Z,3.85
2019-02-22T13:33:10.352Z,3.74
2019-02-22T13:35:38.610Z,3.83
2019-02-22T13:38:06.899Z,4.08
2019-02-22T13:40:35.151Z,4.49
2019-02-22T13:43:05.327Z,4.42
2019-02-22T13:45:33.434Z,4.39
2019-02-22T13:48:01.699Z,4.00
2019-02-22T13:50:29.996Z,3.63
2019-02-22T13:52:58.243Z,3.62
2019-02-22T13:55:26.509Z,3.79
2019-02-22T13:57:54.801Z,3.87
2019-02-22T14:00:23.157Z,3.90
2019-02-22T14:02:51.507Z,3.92
2019-02-22T14:05:19.784Z,3.88
2019-02-22T14:07:58.706Z,4.22
2019-02-22T14:10:27.952Z,4.17
2019-02-22T14:12:56.217Z,3.93
2019-02-22T14:15:24.506Z,3.85
2019-02-22T14:17:53.113Z,3.85
2019-02-22T14:20:21.374Z,3.75
2019-02-22T14:22:51.722Z,3.57
2019-02-22T14:25:20.133Z,3.52
2019-02-22T14:27:51.383Z,3.52
2019-02-22T14:30:19.678Z,3.66
2019-02-22T14:32:47.933Z,3.93
2019-02-22T14:35:16.216Z,3.85
2019-02-22T14:37:44.579Z,3.45
2019-02-22T14:40:13.776Z,3.46
2019-02-22T14:42:42.047Z,3.28
2019-02-22T14:45:11.454Z,3.28
2019-02-22T14:47:39.756Z,3.17
2019-02-22T14:50:11.272Z,3.08
2019-02-22T14:52:39.567Z,2.95
2019-02-22T14:55:08.671Z,3.07
2019-02-22T14:57:36.949Z,2.98
2019-02-22T15:00:08.500Z,3.06
2019-02-22T15:02:38.386Z,3.06
2019-02-22T15:05:09.309Z,2.91
2019-02-22T15:07:37.693Z,2.75
2019-02-22T15:10:08.020Z,2.81
2019-02-22T15:12:36.321Z,3.01
2019-02-22T15:15:07.424Z,3.04
2019-02-22T15:17:46.360Z,2.84
2019-02-22T15:20:14.624Z,2.92
2019-02-22T15:22:42.913Z,2.62
2019-02-22T15:25:13.027Z,0.89
2019-02-22T15:27:41.321Z,0.12
2019-02-22T15:30:12.118Z,-0.56
2019-02-22T15:32:40.392Z,-0.64
2019-02-22T15:35:14.037Z,-0.60
2019-02-22T15:37:43.368Z,-0.52
2019-02-22T15:40:14.030Z,-0.54
2019-02-22T15:42:42.297Z,-0.15
2019-02-22T15:45:18.112Z,-0.14
2019-02-22T15:47:48.679Z,-0.37
2019-02-22T15:50:18.435Z,-0.89
2019-02-22T15:52:48.212Z,-0.58
2019-02-22T15:55:16.641Z,-0.86
2019-02-22T15:57:44.910Z,-0.96
2019-02-22T16:00:16.599Z,-1.12
2019-02-22T16:02:44.252Z,-1.28
2019-02-22T16:05:14.152Z,-1.30
2019-02-22T16:07:44.960Z,-1.42
2019-02-22T16:10:12.885Z,-1.53
2019-02-22T16:12:41.183Z,-1.39
2019-02-22T16:15:10.665Z,-1.31
2019-02-22T16:17:39.005Z,-1.40
2019-02-22T16:20:08.175Z,-1.36
2019-02-22T16:22:36.439Z,-1.37
2019-02-22T16:25:05.844Z,-1.33
2019-02-22T16:27:34.171Z,-1.40
2019-02-22T16:30:02.746Z,-1.61
2019-02-22T16:32:31.013Z,-1.61
2019-02-22T16:34:59.312Z,-1.57
2019-02-22T16:37:27.623Z,-1.78
2019-02-22T16:39:55.881Z,-1.64
2019-02-22T16:42:24.174Z,-1.64
2019-02-22T16:44:52.436Z,-1.95
2019-02-22T16:47:21.043Z,-1.78
2019-02-22T16:49:49.300Z,-1.75
2019-02-22T16:52:17.580Z,-1.81
2019-02-22T16:54:45.836Z,-2.03
2019-02-22T16:57:14.096Z,-1.71
2019-02-22T16:59:42.403Z,-2.14
2019-02-22T17:02:12.746Z,-2.05
2019-02-22T17:04:41.047Z,-1.92
2019-02-22T17:07:09.306Z,-2.05
2019-02-22T17:09:37.616Z,-2.22
2019-02-22T17:12:06.855Z,-2.05
2019-02-22T17:14:35.338Z,-2.23
2019-02-22T17:17:04.626Z,-2.10
2019-02-22T17:19:34.144Z,-2.08
2019-02-22T17:22:02.437Z,-2.34
2019-02-22T17:24:31.730Z,-2.16
2019-02-22T17:27:00.007Z,-2.20
2019-02-22T17:29:28.308Z,-2.25
2019-02-22T17:31:56.603Z,-2.16
2019-02-22T17:34:24.872Z,-2.38
2019-02-22T17:36:53.147Z,-2.05
2019-02-22T17:39:21.440Z,-1.94
2019-02-22T17:41:49.700Z,-2.40
2019-02-22T17:44:18.031Z,-2.06
2019-02-22T17:46:56.972Z,-2.06
2019-02-22T17:49:16.277Z,-2.32
2019-02-22T17:51:45.930Z,-2.38
2019-02-22T17:54:14.177Z,-2.29
2019-02-22T17:56:42.478Z,-2.22
2019-02-22T17:59:10.771Z,-2.33
2019-02-22T18:01:39.049Z,-2.78
2019-02-22T18:04:07.314Z,-2.55
2019-02-22T18:06:35.614Z,-2.50
2019-02-22T18:09:05.095Z,-2.59
2019-02-22T18:11:33.359Z,-2.74
2019-02-22T18:14:01.635Z,-2.51
2019-02-22T18:16:29.945Z,-2.58
2019-02-22T18:18:58.223Z,-2.46
2019-02-22T18:21:26.503Z,-2.53
2019-02-22T18:23:54.766Z,-2.67
2019-02-22T18:26:23.063Z,-2.55
2019-02-22T18:28:54.138Z,-2.34
2019-02-22T18:31:22.451Z,-2.75
2019-02-22T18:33:51.096Z,-2.66
2019-02-22T18:36:19.381Z,-2.43
2019-02-22T18:38:47.657Z,-2.35
2019-02-22T18:41:16.005Z,-2.72
2019-02-22T18:43:44.419Z,-2.71
2019-02-22T18:46:28.959Z,-2.81
2019-02-22T18:48:57.351Z,-2.75
2019-02-22T18:51:25.641Z,-3.10
2019-02-22T18:53:53.898Z,-3.36
2019-02-22T18:56:22.172Z,-3.41
2019-02-22T18:58:50.435Z,-3.28
2019-02-22T19:01:18.730Z,-3.27
2019-02-22T19:03:46.994Z,-3.36
2019-02-22T19:06:15.284Z,-3.30
2019-02-22T19:08:43.550Z,-3.44
2019-02-22T19:11:13.496Z,-3.36
2019-02-22T19:13:41.760Z,-3.47
2019-02-22T19:16:10.444Z,-3.35
2019-02-22T19:18:38.767Z,-3.57
2019-02-22T19:21:07.059Z,-3.44
2019-02-22T19:23:35.679Z,-3.38
2019-02-22T19:26:03.987Z,-3.45
2019-02-22T19:28:32.341Z,-3.39
2019-02-22T19:31:00.657Z,-3.05
2019-02-22T19:33:28.936Z,-3.56
2019-02-22T19:35:57.224Z,-3.68
2019-02-22T19:38:25.503Z,-3.40
2019-02-22T19:40:53.781Z,-3.38
2019-02-22T19:43:22.077Z,-3.60
2019-02-22T19:45:50.346Z,-3.33
2019-02-22T19:48:18.644Z,-3.32
2019-02-22T19:50:46.924Z,-3.76
2019-02-22T19:53:15.233Z,-3.78
2019-02-22T19:55:43.511Z,-3.91
2019-02-22T19:58:14.469Z,-3.76
2019-02-22T20:00:42.787Z,-3.73
2019-02-22T20:03:11.940Z,-3.31
2019-02-22T20:05:40.407Z,-3.86
2019-02-22T20:08:08.765Z,-3.94
2019-02-22T20:10:38.128Z,-3.86
2019-02-22T20:13:06.420Z,-3.78
2019-02-22T20:15:34.680Z,-4.02
2019-02-22T20:18:04.245Z,-3.90
2019-02-22T20:20:32.509Z,-4.06
2019-02-22T20:23:00.805Z,-4.03
2019-02-22T20:25:29.072Z,-3.76
2019-02-22T20:27:57.378Z,-4.19
2019-02-22T20:30:25.643Z,-4.05
2019-02-22T20:32:53.908Z,-4.05
2019-02-22T20:35:26.533Z,-3.83
2019-02-22T20:37:54.793Z,-4.10
2019-02-22T20:40:23.082Z,-3.98
2019-02-22T20:42:51.343Z,-3.93
2019-02-22T20:45:19.647Z,-4.04
2019-02-22T20:47:48.111Z,-4.29
2019-02-22T20:50:16.427Z,-4.25
2019-02-22T20:52:44.702Z,-4.12
2019-02-22T20:55:14.618Z,-4.41
2019-02-22T20:57:42.911Z,-4.28
2019-02-22T21:00:27.980Z,-3.82
2019-02-22T21:02:56.273Z,-4.18
2019-02-22T21:05:24.541Z,-4.19
2019-02-22T21:07:55.542Z,-4.14
2019-02-22T21:10:23.869Z,-4.49
2019-02-22T21:12:52.163Z,-4.29
2019-02-22T21:15:20.424Z,-4.44
2019-02-22T21:17:48.728Z,-4.33
2019-02-22T21:20:18.433Z,-4.51
2019-02-22T21:22:46.690Z,-4.37
2019-02-22T21:25:14.982Z,-4.58
2019-02-22T21:27:43.285Z,-4.32
2019-02-22T21:30:19.040Z,-3.98
2019-02-22T21:32:47.298Z,-4.42
2019-02-22T21:35:15.572Z,-4.17
2019-02-22T21:37:44.373Z,-4.24
2019-02-22T21:40:13.513Z,-4.20
2019-02-22T21:42:41.773Z,-4.82
2019-02-22T21:45:14.992Z,-4.97
2019-02-22T21:47:54.152Z,-4.81
2019-02-22T21:50:13.994Z,-4.84
2019-02-22T21:52:42.268Z,-4.76
2019-02-22T21:55:14.455Z,-4.56
2019-02-22T21:57:42.715Z,-4.80
2019-02-22T22:00:22.790Z,-4.70
2019-02-22T22:02:51.052Z,-4.83
2019-02-22T22:05:19.316Z,-4.93
2019-02-22T22:08:01.353Z,-4.82
2019-02-22T22:10:29.758Z,-4.99
2019-02-22T22:12:57.872Z,-4.85
2019-02-22T22:15:26.133Z,-4.70
2019-02-22T22:17:54.392Z,-4.81
2019-02-22T22:20:22.672Z,-4.98
2019-02-22T22:22:51.929Z,-4.99
2019-02-22T22:25:21.695Z,-4.85
2019-02-22T22:27:49.955Z,-4.95
2019-02-22T22:30:18.256Z,-4.51
2019-02-22T22:32:46.518Z,-4.85
2019-02-22T22:35:22.631Z,-4.79
2019-02-22T22:37:53.233Z,-4.88
2019-02-22T22:40:21.527Z,-4.90
2019-02-22T22:42:49.824Z,-4.59
2019-02-22T22:45:18.111Z,-5.02
2019-02-22T22:47:46.598Z,-4.93
2019-02-22T22:50:19.173Z,-5.15
2019-02-22T22:52:47.542Z,-5.19
2019-02-22T22:55:15.806Z,-4.91
2019-02-22T22:57:44.071Z,-4.96
2019-02-22T23:00:40.260Z,-5.12
2019-02-22T23:03:08.511Z,-4.91
2019-02-22T23:05:36.786Z,-4.90
2019-02-22T23:08:05.205Z,-4.86
2019-02-22T23:10:33.465Z,-5.04
2019-02-22T23:13:01.750Z,-5.01
2019-02-22T23:15:30.018Z,-5.04
2019-02-22T23:17:58.280Z,-4.82
2019-02-22T23:20:26.581Z,-4.99
2019-02-22T23:22:54.877Z,-4.76
2019-02-22T23:25:23.144Z,-4.69
2019-02-22T23:27:51.444Z,-5.22
2019-02-22T23:30:19.700Z,-4.64
2019-02-22T23:32:47.977Z,-4.63
2019-02-22T23:35:16.241Z,-4.82
2019-02-22T23:37:45.011Z,-5.11
2019-02-22T23:40:13.271Z,-4.13
2019-02-22T23:42:41.540Z,-4.73
2019-02-22T23:45:09.813Z,-4.74
2019-02-22T23:47:38.076Z,-3.93
2019-02-22T23:50:07.814Z,-4.51
2019-02-22T23:52:36.076Z,-4.57
2019-02-22T23:55:05.063Z,-4.43
2019-02-22T23:57:33.327Z,-4.42
